Ship Status Report: callsign BATFR20

sailwx.info

Track history (hours):
 
Tides and Currents Weather Stations Pressure Air Temp Water Temp Dewpoint Dewpoint Depression Visibility Wind Speed Wind Dir Waves Ship Positions

Callsign BATFR20 (name unknown)

Last reported at 2015-Mar-02 18:00 UTC. Time now 2015-Mar-02 19:06 UTC.
Position N 43°12' E 005°18'.

Wind from 290 at 30 knots

Barometer 1019.2 mb
Air temperature 15.2 ° C
Dewpoint 9.5 ° C

Date/timePositionNaut miles runAvg speedWind from/ knotsBaromVisibWave heightAir tempDewpointWater temp
2015-Mar-02 18:00N 43°12' E 005°18'6 0.2 290 / 301019.2 15.2 9.5
2015-Mar-01 07:00N 43°18' E 005°18'7 7.4 360 / 41020.2 8.2 2.2
2015-Mar-01 06:00N 43°12' E 005°24'3919.5 300 / 141018.4 10.0 3.4
2015-Mar-01 04:00N 42°48' E 006°06'2121.3 280 / 171017.5 12.2 2.9
2015-Mar-01 03:00N 42°36' E 006°30'1817.9 250 / 131018.2 12.2 6.4
2015-Mar-01 02:00N 42°24' E 006°48'1918.7 230 / 81018.8 12.0 6.4
2015-Mar-01 01:00N 42°18' E 007°12'1817.9 270 / 31019.3 12.0 6.4
2015-Mar-01 00:00N 42°06' E 007°30'3618.0 310 / 61019.3 11.9 7.0
2015-Feb-28 22:00N 41°48' E 008°12'1818.0 020 / 11019.1 11.5 6.0
2015-Feb-28 21:00N 41°36' E 008°30'1514.7 1018.7 11.5 5.7
2015-Feb-28 20:00N 41°30' E 008°48'1818.1 290 / 51018.5 11.7 5.0
2015-Feb-28 19:00N 41°18' E 009°06'5 0.3 250 / 141017.6 11.9 4.5
2015-Feb-28 05:00N 41°18' E 009°12'1919.0 350 / 101013.9 11.2 5.7
2015-Feb-28 04:00N 41°24' E 008°48'1818.0 340 / 41013.6 11.2 7.2
2015-Feb-28 03:00N 41°36' E 008°30'3919.7 330 / 31013.3 11.9 5.2
2015-Feb-28 01:00N 42°00' E 007°48'1918.8 140 / 51013.7 11.7 5.9
2015-Feb-28 00:00N 42°06' E 007°24'1817.9 280 / 61014.1 11.4 6.7
2015-Feb-27 23:00N 42°18' E 007°06'3617.9 300 / 81014.3 10.9 6.2
2015-Feb-27 21:00N 42°36' E 006°24'1817.9 310 / 201014.2 10.0 4.7
2015-Feb-27 20:00N 42°48' E 006°06'1817.8 310 / 241014.0 9.5 3.0
2015-Feb-27 19:00N 43°00' E 005°48'25 2.1 330 / 291014.2 9.2 1.7
2015-Feb-27 07:00N 43°18' E 005°24'1212.0 1011.7 9.9 6.2
2015-Feb-27 06:00N 43°06' E 005°24'1414.5 280 / 61011.2 10.9 6.9
2015-Feb-27 05:00N 43°00' E 005°42'1918.6 160 / 131011.5 12.4 4.9
2015-Feb-27 04:00N 42°54' E 006°06'3617.9 180 / 91012.0 12.2 4.7
2015-Feb-27 02:00N 42°36' E 006°48'1817.9 100 / 71013.4 12.2 5.5
2015-Feb-27 01:00N 42°24' E 007°06'5417.9 050 / 81013.7 12.2 5.4
2015-Feb-26 22:00N 41°54' E 008°06'1818.0 130 / 111013.8 12.4 7.7
2015-Feb-26 21:00N 41°42' E 008°24'1818.0 110 / 111013.7 11.7 7.7
2015-Feb-26 20:00N 41°30' E 008°42'2221.6 050 / 81013.7 11.4 6.9
2015-Feb-26 19:00N 41°18' E 009°06'1514.8 330 / 81013.8 11.7 7.4
2015-Feb-26 18:00N 41°24' E 009°24'13 1.2 020 / 181014.2 12.5 6.2
2015-Feb-26 07:00N 41°36' E 009°18'1312.8 040 / 141013.1 12.7 3.4
2015-Feb-26 06:00N 41°24' E 009°24'1514.8 010 / 311010.2 12.2 5.7
2015-Feb-26 05:00N 41°18' E 009°06'3618.1 050 / 131011.2 11.4 3.7
2015-Feb-26 03:00N 41°36' E 008°24'2221.6 050 / 61011.2 11.9 7.4
2015-Feb-26 02:00N 41°48' E 008°00'1818.0 010 / 401009.5 12.2 6.4
2015-Feb-26 01:00N 42°00' E 007°42'1818.0 020 / 371010.9 12.4 5.4
2015-Feb-26 00:00N 42°12' E 007°24'1918.8 020 / 261011.7 11.9 6.4
2015-Feb-25 23:00N 42°18' E 007°00'1817.9 050 / 191011.8 12.7 5.9
2015-Feb-25 22:00N 42°30' E 006°42'3617.9 060 / 111012.4 13.4 1.9
2015-Feb-25 20:00N 42°48' E 006°00'1817.8 340 / 141011.8 12.9 4.4
2015-Feb-25 19:00N 43°00' E 005°42'2121.2 310 / 211012.2 11.5 0.7
2015-Feb-25 18:00N 43°12' E 005°18'6 0.7 340 / 311012.4 11.2 1.7
2015-Feb-25 09:00N 43°18' E 005°18'1514.8 330 / 301009.2 9.9-0.7
2015-Feb-25 08:00N 43°06' E 005°30'1918.5 320 / 391007.8 9.2 0.9
2015-Feb-25 07:00N 43°00' E 005°54'1313.2 310 / 201007.6 10.9-5.2
2015-Feb-25 06:00N 43°00' E 006°12'1918.5 340 / 261006.8 10.9-3.8
2015-Feb-25 05:00N 43°06' E 006°36'2322.7 310 / 191005.9 11.4-3.1
2015-Feb-25 04:00N 43°12' E 007°06'1717.5 230 / 131005.3 12.2 0.5
2015-Feb-25 03:00N 43°12' E 007°30'1818.5 040 / 291005.2 13.4 0.4
2015-Feb-25 02:00N 43°18' E 007°54'1818.5 020 / 441001.3 12.2 0.2
2015-Feb-25 01:00N 43°12' E 008°18'1918.5 010 / 48998.8 10.9 2.2
2015-Feb-25 00:00N 43°06' E 008°42'1313.1 010 / 47999.1 9.4 4.5
2015-Feb-24 23:00N 43°06' E 009°00'1817.5 999.4 8.9 4.9
2015-Feb-24 22:00N 43°06' E 009°24'1918.5 360 / 31999.5 9.2 5.5
2015-Feb-24 21:00N 42°48' E 009°30'1918.5 330 / 25999.9 9.0 7.0
2015-Feb-24 20:00N 42°30' E 009°36'1818.0 320 / 31998.6 9.2 5.4
2015-Feb-24 19:00N 42°12' E 009°36'2424.4 350 / 22998.2 10.4 4.7
2015-Feb-24 18:00N 41°48' E 009°30'1515.0 350 / 27998.0 10.9 3.7
2015-Feb-24 17:00N 41°36' E 009°18'0 0.0 999.9 10.5 1.7
2015-Feb-24 07:00N 41°36' E 009°18'2010.1 200 / 7999.9 11.2 7.2
2015-Feb-24 05:00N 41°18' E 009°06'1514.8 260 / 131000.7 13.0 8.2
2015-Feb-24 04:00N 41°24' E 008°48'4019.8 340 / 251001.2 13.2 7.9
2015-Feb-24 02:00N 41°48' E 008°06'1818.0 300 / 251003.9 13.2 6.4
2015-Feb-24 01:00N 42°00' E 007°48'1918.8 290 / 311004.0 13.4 7.2
2015-Feb-24 00:00N 42°06' E 007°24'1817.9 290 / 291003.9 13.2 9.2
2015-Feb-23 23:00N 42°18' E 007°06'3617.9 280 / 301004.5 13.210.0
2015-Feb-23 21:00N 42°36' E 006°24'1817.9 280 / 231004.4 13.710.4
2015-Feb-23 20:00N 42°48' E 006°06'3617.8 280 / 151004.9 13.0 9.9
2015-Feb-23 18:00N 43°06' E 005°24'13 0.4 310 / 121005.2 12.9 9.2
2015-Feb-22 07:00N 43°18' E 005°18'6 6.0 340 / 23999.2 5.7 0.2
2015-Feb-22 06:00N 43°12' E 005°18'5719.0 330 / 37996.4 6.7 1.7
2015-Feb-22 03:00N 42°42' E 006°24'1514.5 320 / 24995.3 8.5 2.7
2015-Feb-22 02:00N 42°36' E 006°42'2121.4 320 / 17996.0 9.4 4.7
2015-Feb-22 01:00N 42°24' E 007°06'1514.6 320 / 19996.2 10.4 5.4
2015-Feb-22 00:00N 42°18' E 007°24'1817.9 300 / 15996.3 11.0 7.2
2015-Feb-21 23:00N 42°06' E 007°42'2121.5 300 / 5997.5 11.0 6.9
2015-Feb-21 22:00N 41°54' E 008°06'1818.0 020 / 4998.3 11.2 7.5
2015-Feb-21 21:00N 41°42' E 008°24'1818.0 210 / 9998.1 12.4 8.4
2015-Feb-21 20:00N 41°30' E 008°42'1818.1 200 / 9999.1 11.7 9.0
2015-Feb-21 19:00N 41°18' E 009°00'1919.0 240 / 5999.9 11.4 9.0
2015-Feb-21 18:00N 41°24' E 009°24'1312.8 250 / 61000.4 11.4 9.7
2015-Feb-21 17:00N 41°36' E 009°18'0 0.0 1001.0 11.2 9.7
2015-Feb-21 07:00N 41°36' E 009°18'1312.8 180 / 21012.3 6.7 3.0
2015-Feb-21 06:00N 41°24' E 009°24'1514.8 140 / 131012.1 11.7 5.9
2015-Feb-21 05:00N 41°18' E 009°06'2221.6 090 / 61012.6 11.2 5.7
2015-Feb-21 04:00N 41°30' E 008°42'1818.0 100 / 131012.8 11.7 7.7
2015-Feb-21 03:00N 41°42' E 008°24'1918.9 110 / 131013.5 11.9 7.7
2015-Feb-21 02:00N 41°48' E 008°00'1818.0 150 / 161014.3 12.5 7.0
2015-Feb-21 01:00N 42°00' E 007°42'1818.0 150 / 211014.5 12.2 7.9
2015-Feb-21 00:00N 42°12' E 007°24'3617.9 170 / 191015.4 12.4 8.7
2015-Feb-20 22:00N 42°30' E 006°42'1817.9 150 / 191016.9 12.2 9.4
2015-Feb-20 21:00N 42°42' E 006°24'1918.6 140 / 161017.7 11.7 6.9
2015-Feb-20 20:00N 42°48' E 006°00'1817.8 130 / 151018.1 11.9 3.7
2015-Feb-20 19:00N 43°00' E 005°42'1817.8 120 / 141018.2 11.5 4.4
2015-Feb-20 18:00N 43°12' E 005°24'   120 / 171018.2 11.4 3.9
Track history (hours):
 
Tides and Currents Weather Stations Pressure Air Temp Water Temp Dewpoint Dewpoint Depression Visibility Wind Speed Wind Dir Waves Ship Positions

Callsign BATFR20 (name unknown)

Last reported at 2015-Mar-02 18:00 UTC. Time now 2015-Mar-02 19:06 UTC.
Position N 43°12' E 005°18'.

Wind from 290 at 30 knots

Barometer 1019.2 mb
Air temperature 15.2 ° C
Dewpoint 9.5 ° C

Date/timePositionNaut miles runAvg speedWind from/ knotsBaromVisibWave heightAir tempDewpointWater temp
2015-Mar-02 18:00N 43°12' E 005°18'6 0.2 290 / 301019.2 15.2 9.5
2015-Mar-01 07:00N 43°18' E 005°18'7 7.4 360 / 41020.2 8.2 2.2
2015-Mar-01 06:00N 43°12' E 005°24'3919.5 300 / 141018.4 10.0 3.4
2015-Mar-01 04:00N 42°48' E 006°06'2121.3 280 / 171017.5 12.2 2.9
2015-Mar-01 03:00N 42°36' E 006°30'1817.9 250 / 131018.2 12.2 6.4
2015-Mar-01 02:00N 42°24' E 006°48'1918.7 230 / 81018.8 12.0 6.4
2015-Mar-01 01:00N 42°18' E 007°12'1817.9 270 / 31019.3 12.0 6.4
2015-Mar-01 00:00N 42°06' E 007°30'3618.0 310 / 61019.3 11.9 7.0
2015-Feb-28 22:00N 41°48' E 008°12'1818.0 020 / 11019.1 11.5 6.0
2015-Feb-28 21:00N 41°36' E 008°30'1514.7 1018.7 11.5 5.7
2015-Feb-28 20:00N 41°30' E 008°48'1818.1 290 / 51018.5 11.7 5.0
2015-Feb-28 19:00N 41°18' E 009°06'5 0.3 250 / 141017.6 11.9 4.5
2015-Feb-28 05:00N 41°18' E 009°12'1919.0 350 / 101013.9 11.2 5.7
2015-Feb-28 04:00N 41°24' E 008°48'1818.0 340 / 41013.6 11.2 7.2
2015-Feb-28 03:00N 41°36' E 008°30'3919.7 330 / 31013.3 11.9 5.2
2015-Feb-28 01:00N 42°00' E 007°48'1918.8 140 / 51013.7 11.7 5.9
2015-Feb-28 00:00N 42°06' E 007°24'1817.9 280 / 61014.1 11.4 6.7
2015-Feb-27 23:00N 42°18' E 007°06'3617.9 300 / 81014.3 10.9 6.2
2015-Feb-27 21:00N 42°36' E 006°24'1817.9 310 / 201014.2 10.0 4.7
2015-Feb-27 20:00N 42°48' E 006°06'1817.8 310 / 241014.0 9.5 3.0
2015-Feb-27 19:00N 43°00' E 005°48'25 2.1 330 / 291014.2 9.2 1.7
2015-Feb-27 07:00N 43°18' E 005°24'1212.0 1011.7 9.9 6.2
2015-Feb-27 06:00N 43°06' E 005°24'1414.5 280 / 61011.2 10.9 6.9
2015-Feb-27 05:00N 43°00' E 005°42'1918.6 160 / 131011.5 12.4 4.9
2015-Feb-27 04:00N 42°54' E 006°06'3617.9 180 / 91012.0 12.2 4.7
2015-Feb-27 02:00N 42°36' E 006°48'1817.9 100 / 71013.4 12.2 5.5
2015-Feb-27 01:00N 42°24' E 007°06'5417.9 050 / 81013.7 12.2 5.4
2015-Feb-26 22:00N 41°54' E 008°06'1818.0 130 / 111013.8 12.4 7.7
2015-Feb-26 21:00N 41°42' E 008°24'1818.0 110 / 111013.7 11.7 7.7
2015-Feb-26 20:00N 41°30' E 008°42'2221.6 050 / 81013.7 11.4 6.9
2015-Feb-26 19:00N 41°18' E 009°06'1514.8 330 / 81013.8 11.7 7.4
2015-Feb-26 18:00N 41°24' E 009°24'13 1.2 020 / 181014.2 12.5 6.2
2015-Feb-26 07:00N 41°36' E 009°18'1312.8 040 / 141013.1 12.7 3.4
2015-Feb-26 06:00N 41°24' E 009°24'1514.8 010 / 311010.2 12.2 5.7
2015-Feb-26 05:00N 41°18' E 009°06'3618.1 050 / 131011.2 11.4 3.7
2015-Feb-26 03:00N 41°36' E 008°24'2221.6 050 / 61011.2 11.9 7.4
2015-Feb-26 02:00N 41°48' E 008°00'1818.0 010 / 401009.5 12.2 6.4
2015-Feb-26 01:00N 42°00' E 007°42'1818.0 020 / 371010.9 12.4 5.4
2015-Feb-26 00:00N 42°12' E 007°24'1918.8 020 / 261011.7 11.9 6.4
2015-Feb-25 23:00N 42°18' E 007°00'1817.9 050 / 191011.8 12.7 5.9
2015-Feb-25 22:00N 42°30' E 006°42'3617.9 060 / 111012.4 13.4 1.9
2015-Feb-25 20:00N 42°48' E 006°00'1817.8 340 / 141011.8 12.9 4.4
2015-Feb-25 19:00N 43°00' E 005°42'2121.2 310 / 211012.2 11.5 0.7
2015-Feb-25 18:00N 43°12' E 005°18'6 0.7 340 / 311012.4 11.2 1.7
2015-Feb-25 09:00N 43°18' E 005°18'1514.8 330 / 301009.2 9.9-0.7
2015-Feb-25 08:00N 43°06' E 005°30'1918.5 320 / 391007.8 9.2 0.9
2015-Feb-25 07:00N 43°00' E 005°54'1313.2 310 / 201007.6 10.9-5.2
2015-Feb-25 06:00N 43°00' E 006°12'1918.5 340 / 261006.8 10.9-3.8
2015-Feb-25 05:00N 43°06' E 006°36'2322.7 310 / 191005.9 11.4-3.1
2015-Feb-25 04:00N 43°12' E 007°06'1717.5 230 / 131005.3 12.2 0.5
2015-Feb-25 03:00N 43°12' E 007°30'1818.5 040 / 291005.2 13.4 0.4
2015-Feb-25 02:00N 43°18' E 007°54'1818.5 020 / 441001.3 12.2 0.2
2015-Feb-25 01:00N 43°12' E 008°18'1918.5 010 / 48998.8 10.9 2.2
2015-Feb-25 00:00N 43°06' E 008°42'1313.1 010 / 47999.1 9.4 4.5
2015-Feb-24 23:00N 43°06' E 009°00'1817.5 999.4 8.9 4.9
2015-Feb-24 22:00N 43°06' E 009°24'1918.5 360 / 31999.5 9.2 5.5
2015-Feb-24 21:00N 42°48' E 009°30'1918.5 330 / 25999.9 9.0 7.0
2015-Feb-24 20:00N 42°30' E 009°36'1818.0 320 / 31998.6 9.2 5.4
2015-Feb-24 19:00N 42°12' E 009°36'2424.4 350 / 22998.2 10.4 4.7
2015-Feb-24 18:00N 41°48' E 009°30'1515.0 350 / 27998.0 10.9 3.7
2015-Feb-24 17:00N 41°36' E 009°18'0 0.0 999.9 10.5 1.7
2015-Feb-24 07:00N 41°36' E 009°18'2010.1 200 / 7999.9 11.2 7.2
2015-Feb-24 05:00N 41°18' E 009°06'1514.8 260 / 131000.7 13.0 8.2
2015-Feb-24 04:00N 41°24' E 008°48'4019.8 340 / 251001.2 13.2 7.9
2015-Feb-24 02:00N 41°48' E 008°06'1818.0 300 / 251003.9 13.2 6.4
2015-Feb-24 01:00N 42°00' E 007°48'1918.8 290 / 311004.0 13.4 7.2
2015-Feb-24 00:00N 42°06' E 007°24'1817.9 290 / 291003.9 13.2 9.2
2015-Feb-23 23:00N 42°18' E 007°06'3617.9 280 / 301004.5 13.210.0
2015-Feb-23 21:00N 42°36' E 006°24'1817.9 280 / 231004.4 13.710.4
2015-Feb-23 20:00N 42°48' E 006°06'3617.8 280 / 151004.9 13.0 9.9
2015-Feb-23 18:00N 43°06' E 005°24'13 0.4 310 / 121005.2 12.9 9.2
2015-Feb-22 07:00N 43°18' E 005°18'6 6.0 340 / 23999.2 5.7 0.2
2015-Feb-22 06:00N 43°12' E 005°18'5719.0 330 / 37996.4 6.7 1.7
2015-Feb-22 03:00N 42°42' E 006°24'1514.5 320 / 24995.3 8.5 2.7
2015-Feb-22 02:00N 42°36' E 006°42'2121.4 320 / 17996.0 9.4 4.7
2015-Feb-22 01:00N 42°24' E 007°06'1514.6 320 / 19996.2 10.4 5.4
2015-Feb-22 00:00N 42°18' E 007°24'1817.9 300 / 15996.3 11.0 7.2
2015-Feb-21 23:00N 42°06' E 007°42'2121.5 300 / 5997.5 11.0 6.9
2015-Feb-21 22:00N 41°54' E 008°06'1818.0 020 / 4998.3 11.2 7.5
2015-Feb-21 21:00N 41°42' E 008°24'1818.0 210 / 9998.1 12.4 8.4
2015-Feb-21 20:00N 41°30' E 008°42'1818.1 200 / 9999.1 11.7 9.0
2015-Feb-21 19:00N 41°18' E 009°00'1919.0 240 / 5999.9 11.4 9.0
2015-Feb-21 18:00N 41°24' E 009°24'1312.8 250 / 61000.4 11.4 9.7
2015-Feb-21 17:00N 41°36' E 009°18'0 0.0 1001.0 11.2 9.7
2015-Feb-21 07:00N 41°36' E 009°18'1312.8 180 / 21012.3 6.7 3.0
2015-Feb-21 06:00N 41°24' E 009°24'1514.8 140 / 131012.1 11.7 5.9
2015-Feb-21 05:00N 41°18' E 009°06'2221.6 090 / 61012.6 11.2 5.7
2015-Feb-21 04:00N 41°30' E 008°42'1818.0 100 / 131012.8 11.7 7.7
2015-Feb-21 03:00N 41°42' E 008°24'1918.9 110 / 131013.5 11.9 7.7
2015-Feb-21 02:00N 41°48' E 008°00'1818.0 150 / 161014.3 12.5 7.0
2015-Feb-21 01:00N 42°00' E 007°42'1818.0 150 / 211014.5 12.2 7.9
2015-Feb-21 00:00N 42°12' E 007°24'3617.9 170 / 191015.4 12.4 8.7
2015-Feb-20 22:00N 42°30' E 006°42'1817.9 150 / 191016.9 12.2 9.4
2015-Feb-20 21:00N 42°42' E 006°24'1918.6 140 / 161017.7 11.7 6.9
2015-Feb-20 20:00N 42°48' E 006°00'1817.8 130 / 151018.1 11.9 3.7
2015-Feb-20 19:00N 43°00' E 005°42'1817.8 120 / 141018.2 11.5 4.4
2015-Feb-20 18:00N 43°12' E 005°24'   120 / 171018.2 11.4 3.9

Dump ship's entire track history